Miers Lake, Alaska
Current Conditions -  °F | °C
As of 8:53 PM on Sunday 21 Dec 2014 (Local Time) from PAOR Reporting Station
Overcast Overcast  
Wind Chill:   Ceiling: 1400
Heat Index:   Visibility: 10mi
Dew Point:   Wind: 0mph
Humidity: 84%   Direction: NA
Pressure: 29.48"   Gusts: NA
Location:  62.4028°N, 143.162°W
Report Text: PAOR 220553Z 00000KT 10SM OVC014 M14/M16 A2948 RMK AO2 SLP038 4/010 T11391161 11117 21139 53020
Loading
Personal Weather Stations






























Interactive Weather Map New forecast layout! Learn more

10-Day Weather Forecast

Advertisements
Track Severe Weather on mobile